Time;durP1;ratioP1;P1;durP2;ratioP2;P2;SDS_P1;SDS_P2;PMS_P1;PMS_P2;Temp;Humidity;BMP_temperature;BMP_pressure;BME280_temperature;BME280_humidity;BME280_pressure;Samples;Min_cycle;Max_cycle;Signal;HPM_P1;HPM_P2
2022/07/05 00:01:37;;;;;;;;;;;;;;;29.84;38.61;99774.38;4352936;32;20033;-86
2022/07/05 00:04:05;;;;;;;;;;;;;;;29.68;39.35;99784.34;4353548;32;19988;-86
2022/07/05 00:06:31;;;;;;;;;;;;;;;29.78;39.02;99785.44;4350896;32;19985;-86
2022/07/05 00:08:58;;;;;;;;;;;;;;;29.75;39.07;99790.13;4352888;32;20004;-86
2022/07/05 00:11:25;;;;;;;;;;;;;;;29.75;39.28;99782.13;4353069;32;20366;-86
2022/07/05 00:13:52;;;;;;;;;;;;;;;29.49;39.80;99773.94;4326356;32;20340;-86
2022/07/05 00:16:19;;;;;;;;;;;;;;;29.67;39.50;99766.59;4356447;32;20785;-86
2022/07/05 00:18:46;;;;;;;;;;;;;;;29.41;40.10;99771.75;4354108;32;20420;-86
2022/07/05 00:21:13;;;;;;;;;;;;;;;29.35;40.29;99755.28;4356170;32;19979;-85
2022/07/05 00:23:40;;;;;;;;;;;;;;;29.30;40.40;99736.06;4356473;32;20003;-85
2022/07/05 00:26:07;;;;;;;;;;;;;;;29.38;40.17;99731.09;4355612;32;19972;-86
2022/07/05 00:28:34;;;;;;;;;;;;;;;29.19;40.61;99734.91;4356109;32;20047;-85
2022/07/05 00:31:01;;;;;;;;;;;;;;;29.03;41.02;99726.16;4333759;32;19978;-87
2022/07/05 00:33:28;;;;;;;;;;;;;;;29.29;40.12;99729.00;4339794;33;19980;-86
2022/07/05 00:35:55;;;;;;;;;;;;;;;29.37;39.70;99716.91;4321383;32;20028;-86
2022/07/05 00:38:23;;;;;;;;;;;;;;;29.08;40.60;99721.41;4297520;33;19995;-85
2022/07/05 00:40:50;;;;;;;;;;;;;;;29.14;40.45;99726.34;4297202;33;19984;-85
2022/07/05 00:43:17;;;;;;;;;;;;;;;29.06;40.78;99728.63;4304041;33;20090;-85
2022/07/05 00:45:44;;;;;;;;;;;;;;;29.10;40.77;99729.28;4329488;32;19976;-86
2022/07/05 00:48:11;;;;;;;;;;;;;;;29.28;40.33;99727.28;4326816;33;19987;-85
2022/07/05 00:50:38;;;;;;;;;;;;;;;29.29;40.01;99721.00;4325963;33;20054;-86
2022/07/05 00:53:11;;;;;;;;;;;;;;;29.25;40.00;99722.16;4311883;33;20668;-87
2022/07/05 00:55:38;;;;;;;;;;;;;;;29.29;40.27;99710.34;4286927;32;20090;-86
2022/07/05 00:58:05;;;;;;;;;;;;;;;29.16;40.28;99719.13;4342581;32;19988;-86
2022/07/05 01:00:32;;;;;;;;;;;;;;;29.17;40.13;99719.97;4341253;32;19988;-85
2022/07/05 01:02:58;;;;;;;;;;;;;;;28.98;40.56;99725.56;4341019;32;19991;-87
2022/07/05 01:05:25;;;;;;;;;;;;;;;28.99;40.52;99721.94;4340871;32;20022;-88
2022/07/05 01:07:52;;;;;;;;;;;;;;;29.03;40.25;99715.50;4340026;32;19997;-87
2022/07/05 01:10:19;;;;;;;;;;;;;;;29.14;39.70;99718.37;4341147;33;20047;-86
2022/07/05 01:12:46;;;;;;;;;;;;;;;29.02;39.48;99721.78;4337599;33;20011;-88
2022/07/05 01:15:13;;;;;;;;;;;;;;;29.00;39.54;99715.66;4340755;32;19975;-87
2022/07/05 01:17:40;;;;;;;;;;;;;;;29.19;38.66;99718.91;4353690;32;20058;-87
2022/07/05 01:20:07;;;;;;;;;;;;;;;29.07;38.87;99719.72;4351423;32;20468;-87
2022/07/05 01:22:39;;;;;;;;;;;;;;;29.02;39.25;99716.47;4341179;32;20438;-87
2022/07/05 01:25:05;;;;;;;;;;;;;;;29.20;37.94;99715.31;4338241;33;19980;-87
2022/07/05 01:27:32;;;;;;;;;;;;;;;29.06;38.14;99709.97;4339825;33;20288;-87
2022/07/05 01:30:00;;;;;;;;;;;;;;;29.14;38.02;99715.69;4337025;33;20349;-87
2022/07/05 01:32:26;;;;;;;;;;;;;;;29.00;38.34;99702.31;4324674;33;20007;-87
2022/07/05 01:34:53;;;;;;;;;;;;;;;28.97;38.03;99702.50;4325938;32;19995;-86
2022/07/05 01:37:20;;;;;;;;;;;;;;;29.17;37.24;99709.31;4339389;32;20004;-86
2022/07/05 01:39:47;;;;;;;;;;;;;;;28.86;38.29;99705.00;4339235;33;19987;-86
2022/07/05 01:42:14;;;;;;;;;;;;;;;29.11;36.92;99705.22;4339684;32;20035;-86
2022/07/05 01:44:41;;;;;;;;;;;;;;;28.98;37.19;99698.91;4311230;32;19988;-86
2022/07/05 01:47:09;;;;;;;;;;;;;;;28.95;37.15;99701.78;4292874;33;19981;-86
2022/07/05 01:49:39;;;;;;;;;;;;;;;28.95;37.39;99699.13;4295978;33;20068;-86
2022/07/05 01:52:16;;;;;;;;;;;;;;;28.91;37.57;99700.25;4285862;33;20043;-85
2022/07/05 01:54:43;;;;;;;;;;;;;;;29.06;37.10;99696.66;4280327;33;20052;-86
2022/07/05 01:57:11;;;;;;;;;;;;;;;29.00;37.42;99697.00;4277450;33;19992;-85
2022/07/05 01:59:38;;;;;;;;;;;;;;;29.19;36.29;99700.25;4281124;33;20513;-86
2022/07/05 02:02:05;;;;;;;;;;;;;;;28.93;37.54;99698.34;4281797;33;20024;-87
2022/07/05 02:04:33;;;;;;;;;;;;;;;29.04;37.16;99705.72;4299153;33;20240;-86
2022/07/05 02:07:05;;;;;;;;;;;;;;;28.94;37.97;99708.03;4284211;33;19992;-86
2022/07/05 02:09:32;;;;;;;;;;;;;;;29.04;37.57;99714.56;4302502;33;20369;-86
2022/07/05 02:12:00;;;;;;;;;;;;;;;29.17;36.84;99710.16;4341006;33;20042;-85
2022/07/05 02:14:27;;;;;;;;;;;;;;;29.19;37.15;99697.59;4344752;32;19987;-85
2022/07/05 02:16:54;;;;;;;;;;;;;;;29.15;37.16;99706.72;4339986;32;19994;-85
2022/07/05 02:19:21;;;;;;;;;;;;;;;29.17;37.16;99704.84;4340188;32;20926;-85
2022/07/05 02:21:48;;;;;;;;;;;;;;;29.14;37.87;99689.03;4351205;32;20027;-86
2022/07/05 02:24:15;;;;;;;;;;;;;;;29.09;37.72;99685.78;4310910;32;19988;-86
2022/07/05 02:26:43;;;;;;;;;;;;;;;28.56;38.71;99684.62;4340684;32;19976;-85
2022/07/05 02:29:10;;;;;;;;;;;;;;;28.99;38.39;99679.31;4318090;32;19991;-86
2022/07/05 02:31:37;;;;;;;;;;;;;;;28.99;38.35;99684.62;4332414;33;19998;-85
2022/07/05 02:34:05;;;;;;;;;;;;;;;28.97;38.20;99689.19;4340818;32;20043;-85
2022/07/05 02:36:31;;;;;;;;;;;;;;;28.87;38.36;99694.25;4337976;33;19994;-86
2022/07/05 02:38:59;;;;;;;;;;;;;;;28.91;38.80;99697.59;4340416;32;19980;-86
2022/07/05 02:41:26;;;;;;;;;;;;;;;28.64;39.28;99700.12;4340321;32;19998;-86
2022/07/05 02:43:53;;;;;;;;;;;;;;;28.54;38.90;99710.50;4339464;32;19983;-86
2022/07/05 02:46:20;;;;;;;;;;;;;;;28.49;39.11;99705.47;4341647;32;19987;-86
2022/07/05 02:48:47;;;;;;;;;;;;;;;28.74;38.72;99702.13;4339716;32;19988;-86
2022/07/05 02:51:16;;;;;;;;;;;;;;;28.80;38.89;99705.38;4340915;32;19986;-85
2022/07/05 02:53:43;;;;;;;;;;;;;;;28.79;38.84;99701.00;4340402;32;19972;-85
2022/07/05 02:56:11;;;;;;;;;;;;;;;28.76;38.72;99690.53;4340049;32;20039;-85
2022/07/05 02:58:38;;;;;;;;;;;;;;;28.78;38.68;99693.94;4340422;32;19999;-86
2022/07/05 03:01:06;;;;;;;;;;;;;;;28.71;38.81;99693.47;4340167;32;19979;-86
2022/07/05 03:03:34;;;;;;;;;;;;;;;28.74;38.93;99686.16;4340408;32;20420;-87
2022/07/05 03:06:01;;;;;;;;;;;;;;;28.55;39.85;99685.56;4338905;32;19988;-86
2022/07/05 03:08:29;;;;;;;;;;;;;;;28.48;40.49;99681.56;4319023;32;20720;-86
2022/07/05 03:10:56;;;;;;;;;;;;;;;28.58;40.21;99682.72;4339436;33;20447;-86
2022/07/05 03:13:23;;;;;;;;;;;;;;;28.52;40.26;99688.41;4340143;32;20010;-86
2022/07/05 03:15:50;;;;;;;;;;;;;;;28.63;40.09;99683.31;4338353;32;20743;-85
2022/07/05 03:18:18;;;;;;;;;;;;;;;28.41;40.72;99682.91;4340214;32;19975;-86
2022/07/05 03:20:45;;;;;;;;;;;;;;;28.51;40.67;99689.37;4339840;32;19979;-86
2022/07/05 03:23:11;;;;;;;;;;;;;;;28.60;40.60;99678.16;4335527;33;20035;-86
2022/07/05 03:25:39;;;;;;;;;;;;;;;28.57;40.90;99678.34;4339928;32;19980;-86
2022/07/05 03:28:06;;;;;;;;;;;;;;;28.68;40.65;99685.66;4340139;32;20059;-86
2022/07/05 03:30:34;;;;;;;;;;;;;;;28.55;41.37;99692.69;4322122;32;20067;-86
2022/07/05 03:33:01;;;;;;;;;;;;;;;28.70;41.07;99703.28;4340075;32;19998;-84
2022/07/05 03:35:28;;;;;;;;;;;;;;;28.54;41.63;99709.63;4337265;32;20812;-84
2022/07/05 03:37:55;;;;;;;;;;;;;;;28.33;42.23;99714.41;4337773;33;20066;-85
2022/07/05 03:40:23;;;;;;;;;;;;;;;28.09;43.04;99724.69;4339158;32;19983;-84
2022/07/05 03:42:51;;;;;;;;;;;;;;;28.35;42.57;99720.50;4339158;33;19983;-86
2022/07/05 03:45:19;;;;;;;;;;;;;;;28.29;42.42;99724.38;4339537;32;20119;-86
2022/07/05 03:47:46;;;;;;;;;;;;;;;28.14;43.01;99726.13;4329865;32;20033;-86
2022/07/05 03:50:14;;;;;;;;;;;;;;;28.41;42.48;99736.16;4348729;32;19975;-87
2022/07/05 03:52:41;;;;;;;;;;;;;;;28.40;42.71;99745.06;4339756;33;20026;-86
2022/07/05 03:55:08;;;;;;;;;;;;;;;28.27;43.04;99742.22;4341730;32;19983;-86
2022/07/05 03:57:35;;;;;;;;;;;;;;;28.39;42.49;99748.66;4341161;32;20008;-86
2022/07/05 04:00:03;;;;;;;;;;;;;;;28.34;42.94;99748.09;4340217;33;19971;-86
2022/07/05 04:02:38;;;;;;;;;;;;;;;28.22;43.43;99753.16;4340210;32;19989;-85
2022/07/05 04:05:07;;;;;;;;;;;;;;;28.31;42.88;99753.59;4340842;32;19984;-85
2022/07/05 04:07:35;;;;;;;;;;;;;;;28.08;43.77;99752.22;4340433;33;20000;-85
2022/07/05 04:10:02;;;;;;;;;;;;;;;28.46;42.41;99760.69;4339658;33;19983;-84
2022/07/05 04:12:29;;;;;;;;;;;;;;;28.32;42.90;99757.94;4340702;33;20074;-86
2022/07/05 04:14:57;;;;;;;;;;;;;;;28.19;43.41;99756.00;4341436;32;20030;-86
2022/07/05 04:17:24;;;;;;;;;;;;;;;28.27;43.37;99745.78;4341180;33;20014;-86
2022/07/05 04:19:51;;;;;;;;;;;;;;;28.45;42.60;99750.97;4341272;32;19988;-86
2022/07/05 04:22:18;;;;;;;;;;;;;;;28.40;42.40;99748.59;4341445;32;19967;-86
2022/07/05 04:27:32;;;;;;;;;;;;;;;28.58;41.77;99749.31;4356346;32;20001;-82
2022/07/05 04:30:00;;;;;;;;;;;;;;;28.54;41.85;99747.78;4355877;32;20042;-82
2022/07/05 04:32:28;;;;;;;;;;;;;;;28.58;41.60;99743.97;4356297;32;19979;-82
2022/07/05 04:34:56;;;;;;;;;;;;;;;28.47;42.35;99741.97;4356213;32;19986;-80
2022/07/05 04:37:22;;;;;;;;;;;;;;;28.62;41.74;99734.87;4356406;32;19983;-81
2022/07/05 04:39:49;;;;;;;;;;;;;;;28.53;41.21;99732.75;4347082;32;20077;-82
2022/07/05 04:42:16;;;;;;;;;;;;;;;28.54;42.27;99729.13;4355863;32;19979;-83
2022/07/05 04:44:43;;;;;;;;;;;;;;;28.53;43.11;99743.41;4355601;32;20047;-86
2022/07/05 04:47:10;;;;;;;;;;;;;;;28.62;43.32;99742.87;4355710;32;20050;-81
2022/07/05 04:49:37;;;;;;;;;;;;;;;28.50;42.12;99738.25;4351640;32;20657;-80
2022/07/05 04:52:04;;;;;;;;;;;;;;;28.66;41.39;99736.38;4337786;32;20143;-81
2022/07/05 04:54:32;;;;;;;;;;;;;;;28.70;41.13;99737.91;4340124;33;19991;-80
2022/07/05 04:56:59;;;;;;;;;;;;;;;28.61;41.20;99730.47;4340445;32;20408;-81
2022/07/05 04:59:26;;;;;;;;;;;;;;;28.59;41.80;99729.72;4338762;33;19987;-82
2022/07/05 05:01:53;;;;;;;;;;;;;;;28.62;41.42;99734.87;4340992;32;20046;-81
2022/07/05 05:04:20;;;;;;;;;;;;;;;28.45;41.61;99721.69;4341049;32;20023;-81
2022/07/05 05:06:46;;;;;;;;;;;;;;;28.57;41.38;99726.28;4341413;32;19987;-84
2022/07/05 05:09:13;;;;;;;;;;;;;;;28.65;40.88;99724.00;4341481;32;20079;-82
2022/07/05 05:11:40;;;;;;;;;;;;;;;28.61;41.93;99721.63;4340501;32;20474;-84
2022/07/05 05:14:07;;;;;;;;;;;;;;;28.71;41.67;99726.28;4341189;32;19987;-83
2022/07/05 05:16:34;;;;;;;;;;;;;;;28.68;41.27;99717.63;4340672;32;19984;-82
2022/07/05 05:19:01;;;;;;;;;;;;;;;28.81;41.85;99713.25;4340105;32;19979;-82
2022/07/05 05:21:28;;;;;;;;;;;;;;;28.73;40.83;99712.91;4341414;32;20047;-82
2022/07/05 05:23:54;;;;;;;;;;;;;;;28.93;39.50;99712.50;4339149;32;19980;-82
2022/07/05 05:26:21;;;;;;;;;;;;;;;28.93;40.07;99719.66;4339542;33;20050;-82
2022/07/05 05:28:48;;;;;;;;;;;;;;;28.99;39.88;99716.63;4340972;32;20364;-82
2022/07/05 05:31:17;;;;;;;;;;;;;;;28.80;40.29;99718.72;4341263;33;19971;-83
2022/07/05 05:33:44;;;;;;;;;;;;;;;28.60;41.99;99720.78;4339257;32;19984;-82
2022/07/05 05:36:11;;;;;;;;;;;;;;;28.79;41.23;99725.00;4311493;33;20619;-80
2022/07/05 05:38:38;;;;;;;;;;;;;;;29.11;39.73;99737.22;4309351;33;19973;-81
2022/07/05 05:41:05;;;;;;;;;;;;;;;29.06;39.66;99731.28;4310856;33;20036;-81
2022/07/05 05:43:32;;;;;;;;;;;;;;;29.09;39.62;99722.25;4310443;33;20835;-81
2022/07/05 05:45:59;;;;;;;;;;;;;;;28.98;39.37;99726.41;4311295;33;20019;-81
2022/07/05 05:48:27;;;;;;;;;;;;;;;28.88;39.97;99730.62;4322212;33;19988;-82
2022/07/05 05:50:55;;;;;;;;;;;;;;;28.84;40.34;99737.06;4311582;33;20056;-81
2022/07/05 05:53:22;;;;;;;;;;;;;;;28.64;41.25;99738.28;4309095;33;20039;-83
2022/07/05 05:55:55;;;;;;;;;;;;;;;28.51;40.97;99745.28;4317280;33;20062;-83
2022/07/05 05:58:25;;;;;;;;;;;;;;;28.40;41.23;99739.72;4309415;33;19996;-81
2022/07/05 06:00:52;;;;;;;;;;;;;;;28.61;40.28;99749.13;4310765;33;20043;-81
2022/07/05 06:03:20;;;;;;;;;;;;;;;28.29;41.61;99759.84;4304252;33;19972;-80
2022/07/05 06:05:47;;;;;;;;;;;;;;;28.54;40.72;99758.44;4295058;33;20026;-81
2022/07/05 06:08:14;;;;;;;;;;;;;;;28.79;40.01;99762.28;4297368;33;19993;-81
2022/07/05 06:10:41;;;;;;;;;;;;;;;28.55;40.80;99765.47;4310502;33;19972;-80
2022/07/05 06:13:11;;;;;;;;;;;;;;;28.55;40.77;99759.28;4309513;33;19992;-82
2022/07/05 06:15:37;;;;;;;;;;;;;;;28.70;40.53;99759.22;4310218;33;20416;-81
2022/07/05 06:18:04;;;;;;;;;;;;;;;28.49;41.51;99755.16;4310994;33;20321;-82
2022/07/05 06:20:32;;;;;;;;;;;;;;;28.55;41.43;99762.78;4310734;33;20039;-81
2022/07/05 06:22:59;;;;;;;;;;;;;;;28.72;40.44;99761.81;4311024;33;19990;-80
2022/07/05 06:25:26;;;;;;;;;;;;;;;28.71;41.02;99760.94;4311020;33;19976;-80
2022/07/05 06:27:54;;;;;;;;;;;;;;;28.78;40.59;99755.22;4310964;33;19992;-81
2022/07/05 06:30:21;;;;;;;;;;;;;;;28.69;41.46;99760.19;4310943;33;20296;-80
2022/07/05 06:32:48;;;;;;;;;;;;;;;28.88;40.43;99749.28;4311907;33;19987;-82
2022/07/05 06:35:15;;;;;;;;;;;;;;;28.76;41.19;99755.34;4311017;33;19987;-80
2022/07/05 06:37:46;;;;;;;;;;;;;;;28.78;41.77;99755.22;4311134;33;20386;-80
2022/07/05 06:40:14;;;;;;;;;;;;;;;28.87;40.63;99754.69;4308685;33;19992;-82
2022/07/05 06:42:43;;;;;;;;;;;;;;;28.80;41.00;99758.66;4311449;33;19996;-80
2022/07/05 06:45:14;;;;;;;;;;;;;;;29.05;40.27;99750.91;4302047;33;20002;-82
2022/07/05 06:47:45;;;;;;;;;;;;;;;29.04;40.49;99762.53;4303471;33;19998;-81
2022/07/05 06:50:14;;;;;;;;;;;;;;;29.28;39.32;99748.63;4299410;33;19990;-81
2022/07/05 06:52:41;;;;;;;;;;;;;;;29.24;39.65;99747.13;4305117;33;19991;-83
2022/07/05 06:55:09;;;;;;;;;;;;;;;28.65;41.88;99739.97;4305163;33;19977;-82
2022/07/05 06:57:35;;;;;;;;;;;;;;;29.13;39.71;99729.09;4305908;33;19992;-81
2022/07/05 07:00:03;;;;;;;;;;;;;;;29.13;40.05;99729.09;4304028;33;19980;-82
2022/07/05 07:02:30;;;;;;;;;;;;;;;29.41;40.03;99733.56;4305097;33;20036;-80
2022/07/05 07:04:57;;;;;;;;;;;;;;;29.74;40.18;99735.03;4306233;33;20389;-81
2022/07/05 07:10:22;;;;;;;;;;;;;;;30.07;38.46;99740.84;4324919;32;20446;-82
2022/07/05 07:12:55;;;;;;;;;;;;;;;30.03;38.36;99736.66;4354860;32;20337;-81
2022/07/05 07:15:22;;;;;;;;;;;;;;;29.80;38.33;99735.53;4353618;32;20013;-81
2022/07/05 07:17:50;;;;;;;;;;;;;;;29.56;38.43;99732.59;4353384;32;19987;-83
2022/07/05 07:20:17;;;;;;;;;;;;;;;29.60;38.50;99734.13;4350785;32;19975;-81
2022/07/05 07:22:44;;;;;;;;;;;;;;;29.55;38.43;99741.53;4354211;32;20014;-81
2022/07/05 07:25:11;;;;;;;;;;;;;;;29.65;37.62;99742.69;4355473;32;20031;-82
2022/07/05 07:27:42;;;;;;;;;;;;;;;29.42;37.87;99740.63;4356377;32;19997;-82
2022/07/05 07:30:20;;;;;;;;;;;;;;;29.28;38.39;99727.28;4354693;32;19979;-83
2022/07/05 07:32:47;;;;;;;;;;;;;;;28.78;39.86;99733.91;4355572;32;20010;-82
2022/07/05 07:35:14;;;;;;;;;;;;;;;28.71;40.41;99734.28;4355689;32;19975;-82
2022/07/05 07:37:40;;;;;;;;;;;;;;;28.63;41.28;99731.25;4356168;32;19983;-82
2022/07/05 07:40:08;;;;;;;;;;;;;;;28.91;39.69;99718.91;4339755;32;19995;-82
2022/07/05 07:42:35;;;;;;;;;;;;;;;28.59;41.76;99719.06;4337796;32;19979;-81
2022/07/05 07:45:05;;;;;;;;;;;;;;;28.60;42.53;99720.78;4350970;32;20026;-81
2022/07/05 07:47:32;;;;;;;;;;;;;;;28.81;41.50;99717.75;4355675;32;20002;-81
2022/07/05 07:49:59;;;;;;;;;;;;;;;28.78;41.91;99723.25;4356378;32;20005;-81
2022/07/05 07:52:26;;;;;;;;;;;;;;;28.84;41.91;99733.53;4355553;32;20035;-81
2022/07/05 07:54:54;;;;;;;;;;;;;;;28.89;41.80;99726.13;4357486;32;20304;-82
2022/07/05 07:57:20;;;;;;;;;;;;;;;28.82;42.35;99731.00;4365885;32;20010;-82
2022/07/05 07:59:47;;;;;;;;;;;;;;;28.68;42.00;99734.47;4356587;32;20010;-81
2022/07/05 08:02:14;;;;;;;;;;;;;;;28.66;41.87;99730.22;4351573;32;20035;-81
2022/07/05 08:04:42;;;;;;;;;;;;;;;28.93;41.67;99735.66;4349195;32;20025;-81
2022/07/05 08:07:09;;;;;;;;;;;;;;;29.19;41.27;99728.72;4334572;32;20009;-80
2022/07/05 08:09:36;;;;;;;;;;;;;;;29.22;41.21;99733.00;4352673;32;19983;-82
2022/07/05 08:12:04;;;;;;;;;;;;;;;29.26;40.98;99734.53;4349582;32;20002;-82
2022/07/05 08:14:30;;;;;;;;;;;;;;;29.19;42.59;99734.91;4354722;32;20024;-80
2022/07/05 08:16:58;;;;;;;;;;;;;;;29.23;41.43;99734.72;4347363;32;19983;-81
2022/07/05 08:22:11;;;;;;;;;;;;;;;29.25;41.78;99748.81;4357891;32;19983;-81
2022/07/05 08:24:41;;;;;;;;;;;;;;;29.22;41.34;99754.34;4356078;32;20050;-82
2022/07/05 08:27:09;;;;;;;;;;;;;;;29.25;41.45;99754.16;4358005;32;20005;-82
2022/07/05 08:29:36;;;;;;;;;;;;;;;29.01;42.75;99757.41;4355521;32;19975;-82
2022/07/05 08:32:07;;;;;;;;;;;;;;;29.05;43.11;99758.91;4355024;32;19975;-82
2022/07/05 08:34:34;;;;;;;;;;;;;;;29.19;42.29;99750.91;4200424;32;5092127;-82
2022/07/05 08:37:00;;;;;;;;;;;;;;;29.33;41.95;99759.88;4357487;32;19987;-82
2022/07/05 08:39:30;;;;;;;;;;;;;;;29.27;42.73;99752.25;4333811;32;21534;-82
2022/07/05 08:41:57;;;;;;;;;;;;;;;29.31;41.99;99759.94;4345973;32;20059;-81
2022/07/05 08:44:24;;;;;;;;;;;;;;;29.47;41.84;99754.50;4345996;32;20377;-81
2022/07/05 08:46:52;;;;;;;;;;;;;;;29.35;41.11;99755.28;4340230;33;20330;-81
2022/07/05 08:49:20;;;;;;;;;;;;;;;29.07;42.02;99765.03;4340775;32;19990;-81
2022/07/05 08:51:47;;;;;;;;;;;;;;;28.90;42.80;99755.34;4341240;33;20298;-81
2022/07/05 08:54:14;;;;;;;;;;;;;;;29.52;40.84;99763.09;4340782;33;19991;-81
2022/07/05 08:56:41;;;;;;;;;;;;;;;29.29;41.29;99769.88;4339577;33;19987;-81
2022/07/05 08:59:28;;;;;;;;;;;;;;;28.88;42.38;99767.06;4341404;32;19976;-82
2022/07/05 09:01:56;;;;;;;;;;;;;;;28.78;41.94;99771.22;4336753;32;19975;-81
2022/07/05 09:04:22;;;;;;;;;;;;;;;28.50;43.90;99775.56;4337879;33;19988;-82
2022/07/05 09:06:50;;;;;;;;;;;;;;;28.45;43.68;99780.28;4353567;32;20034;-80
2022/07/05 09:09:19;;;;;;;;;;;;;;;28.73;42.97;99771.50;4340120;33;20318;-80
2022/07/05 09:11:49;;;;;;;;;;;;;;;28.54;43.28;99769.09;4339905;33;20000;-81
2022/07/05 09:14:36;;;;;;;;;;;;;;;28.35;44.26;99776.41;4340900;32;20326;-81
2022/07/05 09:17:03;;;;;;;;;;;;;;;28.29;44.59;99770.50;4341255;33;20005;-81
2022/07/05 09:19:31;;;;;;;;;;;;;;;28.15;44.54;99757.13;4341511;32;20026;-81
2022/07/05 09:22:03;;;;;;;;;;;;;;;27.94;45.28;99755.69;4310098;32;20454;-81
2022/07/05 09:24:31;;;;;;;;;;;;;;;28.02;45.23;99764.13;4296943;33;19981;-81
2022/07/05 09:27:02;;;;;;;;;;;;;;;27.65;46.58;99763.50;4291554;33;19988;-81
2022/07/05 09:29:29;;;;;;;;;;;;;;;27.80;46.28;99762.66;4297147;33;19996;-80
2022/07/05 09:32:23;;;;;;;;;;;;;;;27.79;46.63;99766.28;4297165;33;20047;-81
2022/07/05 09:34:50;;;;;;;;;;;;;;;27.90;45.91;99771.00;4303882;33;19983;-83
2022/07/05 09:37:17;;;;;;;;;;;;;;;27.97;45.95;99775.00;4312011;33;20361;-82
2022/07/05 09:39:43;;;;;;;;;;;;;;;27.83;46.72;99760.78;4312409;33;20020;-81
2022/07/05 09:42:24;;;;;;;;;;;;;;;28.15;45.77;99762.47;4326074;33;19980;-81
2022/07/05 09:44:52;;;;;;;;;;;;;;;27.66;48.12;99757.22;4325401;33;19975;-81
2022/07/05 09:47:20;;;;;;;;;;;;;;;27.95;45.98;99760.94;4325620;33;19988;-81
2022/07/05 09:49:48;;;;;;;;;;;;;;;27.91;46.03;99779.81;4306274;33;19991;-81
2022/07/05 09:52:39;;;;;;;;;;;;;;;27.62;46.70;99790.25;4296595;33;19995;-81
2022/07/05 09:55:17;;;;;;;;;;;;;;;27.61;47.04;99796.53;4321014;33;20031;-81
2022/07/05 09:57:46;;;;;;;;;;;;;;;27.52;48.73;99815.63;4312223;33;19980;-82
2022/07/05 10:00:15;;;;;;;;;;;;;;;27.16;51.68;99824.66;4311000;33;20051;-82
2022/07/05 10:02:43;;;;;;;;;;;;;;;27.02;54.23;99820.00;4312110;33;19989;-82
2022/07/05 10:05:11;;;;;;;;;;;;;;;26.34;57.42;99825.19;4310683;33;20295;-82
2022/07/05 10:07:40;;;;;;;;;;;;;;;26.88;55.83;99826.03;4312001;33;20015;-81
2022/07/05 10:10:08;;;;;;;;;;;;;;;26.51;56.05;99844.78;4311669;33;20031;-81
2022/07/05 10:12:36;;;;;;;;;;;;;;;26.61;55.18;99846.03;4311850;33;19991;-82
2022/07/05 10:15:02;;;;;;;;;;;;;;;26.31;57.15;99835.09;4321568;33;20021;-82
2022/07/05 10:17:30;;;;;;;;;;;;;;;26.21;57.10;99840.00;4311849;33;20448;-81
2022/07/05 10:20:03;;;;;;;;;;;;;;;25.55;59.72;99839.56;4322037;33;19988;-81
2022/07/05 10:22:31;;;;;;;;;;;;;;;25.71;59.57;99846.72;4305257;33;20361;-81
2022/07/05 10:24:58;;;;;;;;;;;;;;;26.10;56.52;99850.25;4311235;33;20067;-81
2022/07/05 10:27:25;;;;;;;;;;;;;;;25.83;57.55;99850.63;4309896;33;20000;-82
2022/07/05 10:29:52;;;;;;;;;;;;;;;25.83;58.36;99853.28;4322592;33;20315;-82
2022/07/05 10:32:19;;;;;;;;;;;;;;;25.86;58.20;99849.66;4311789;33;20247;-82
2022/07/05 10:34:46;;;;;;;;;;;;;;;25.82;58.90;99843.63;4311274;33;20004;-81
2022/07/05 10:37:27;;;;;;;;;;;;;;;25.95;57.47;99842.13;4321526;33;19983;-83
2022/07/05 10:39:56;;;;;;;;;;;;;;;25.85;57.97;99854.09;4311447;33;20366;-81
2022/07/05 10:42:23;;;;;;;;;;;;;;;25.84;59.64;99857.66;4322112;33;20047;-82
2022/07/05 10:44:50;;;;;;;;;;;;;;;26.14;57.51;99854.50;4321792;33;20002;-83
2022/07/05 10:47:18;;;;;;;;;;;;;;;25.94;57.44;99853.66;4311431;33;20578;-82
2022/07/05 10:49:59;;;;;;;;;;;;;;;25.92;57.37;99858.16;4312762;33;19981;-81
2022/07/05 10:52:27;;;;;;;;;;;;;;;26.08;57.02;99854.81;4309477;33;19985;-82
2022/07/05 10:55:12;;;;;;;;;;;;;;;25.90;58.41;99862.69;4311420;33;19988;-82
2022/07/05 10:57:39;;;;;;;;;;;;;;;25.88;58.81;99853.94;4311115;33;20004;-82
2022/07/05 11:00:10;;;;;;;;;;;;;;;25.67;58.84;99861.06;4321189;33;20699;-81
2022/07/05 11:02:37;;;;;;;;;;;;;;;25.57;59.01;99864.22;4312701;33;19972;-82
2022/07/05 11:05:04;;;;;;;;;;;;;;;25.68;58.15;99868.06;4333251;32;20017;-82
2022/07/05 11:07:50;;;;;;;;;;;;;;;25.84;57.41;99878.87;4322236;32;20093;-83
2022/07/05 11:10:17;;;;;;;;;;;;;;;25.38;60.15;99878.28;4346380;32;19972;-81
2022/07/05 11:12:44;;;;;;;;;;;;;;;25.76;59.45;99878.34;4340376;32;20760;-82
2022/07/05 11:15:11;;;;;;;;;;;;;;;26.03;57.46;99883.31;4307741;32;20039;-82
2022/07/05 11:17:38;;;;;;;;;;;;;;;25.94;57.21;99890.81;4297155;33;19988;-82
2022/07/05 11:20:29;;;;;;;;;;;;;;;25.92;56.98;99882.03;4294618;33;19996;-82
2022/07/05 11:23:03;;;;;;;;;;;;;;;25.80;57.65;99882.56;4320790;33;19981;-82
2022/07/05 11:25:31;;;;;;;;;;;;;;;25.81;57.70;99884.31;4309297;33;20248;-82
2022/07/05 11:28:05;;;;;;;;;;;;;;;25.51;58.68;99882.09;4310990;33;20279;-83
2022/07/05 11:30:48;;;;;;;;;;;;;;;25.83;57.85;99866.56;4310156;33;20006;-82
2022/07/05 11:33:34;;;;;;;;;;;;;;;25.81;58.96;99849.84;4309096;33;20754;-83
2022/07/05 11:36:03;;;;;;;;;;;;;;;25.91;59.34;99847.63;4310117;33;20039;-82
2022/07/05 11:38:33;;;;;;;;;;;;;;;26.10;56.85;99842.31;4309874;33;19988;-82
2022/07/05 11:41:21;;;;;;;;;;;;;;;25.98;57.52;99839.31;4316042;33;20786;-84
2022/07/05 11:43:54;;;;;;;;;;;;;;;25.94;57.82;99844.81;4303072;33;20004;-83
2022/07/05 11:46:22;;;;;;;;;;;;;;;26.26;56.99;99840.66;4309603;33;19980;-84
2022/07/05 11:49:09;;;;;;;;;;;;;;;26.18;57.29;99845.47;4301887;33;20465;-84
2022/07/05 11:51:36;;;;;;;;;;;;;;;26.14;57.98;99854.50;4306583;33;20040;-84
2022/07/05 11:54:04;;;;;;;;;;;;;;;26.06;59.56;99854.00;4281652;33;875430;-85
2022/07/05 11:56:45;;;;;;;;;;;;;;;26.11;58.74;99844.03;4291935;33;20357;-84
2022/07/05 11:59:21;;;;;;;;;;;;;;;26.30;55.08;99839.56;4303350;33;20000;-83
2022/07/05 12:01:49;;;;;;;;;;;;;;;26.40;56.41;99824.91;4288387;32;19979;-84
2022/07/05 12:04:27;;;;;;;;;;;;;;;26.29;57.92;99826.34;4332258;32;20007;-84
2022/07/05 12:07:04;;;;;;;;;;;;;;;26.57;57.31;99816.13;4331861;32;19991;-83
2022/07/05 12:15:09;;;;;;;;;;;;;;;26.31;57.18;99817.37;4336797;32;20696;-84
2022/07/05 12:17:37;;;;;;;;;;;;;;;26.26;59.73;99815.88;4334611;33;20471;-83
2022/07/05 12:20:08;;;;;;;;;;;;;;;26.58;57.33;99816.97;4280425;32;20004;-84
2022/07/05 12:22:39;;;;;;;;;;;;;;;26.51;57.41;99816.41;4309085;33;20776;-82
2022/07/05 12:25:07;;;;;;;;;;;;;;;26.59;56.84;99818.72;4312016;33;20007;-82
2022/07/05 12:27:34;;;;;;;;;;;;;;;26.77;56.37;99814.25;4311409;33;19988;-82
2022/07/05 12:30:03;;;;;;;;;;;;;;;26.13;60.36;99826.22;4311240;33;19980;-83
2022/07/05 12:32:30;;;;;;;;;;;;;;;26.34;59.19;99825.19;4330426;32;20009;-83
2022/07/05 12:34:58;;;;;;;;;;;;;;;26.48;57.10;99826.31;4335556;33;19994;-82
2022/07/05 12:37:33;;;;;;;;;;;;;;;26.34;58.74;99825.19;4334013;33;20063;-82
2022/07/05 12:40:03;;;;;;;;;;;;;;;26.52;58.02;99827.94;4332713;33;19984;-84
2022/07/05 12:42:34;;;;;;;;;;;;;;;26.19;59.53;99825.94;4334644;32;19998;-83
2022/07/05 12:45:10;;;;;;;;;;;;;;;26.55;57.47;99827.78;4336091;32;20003;-83
2022/07/05 12:47:57;;;;;;;;;;;;;;;26.43;58.03;99824.75;4334278;32;19995;-83
2022/07/05 12:50:28;;;;;;;;;;;;;;;26.26;58.73;99811.47;4333829;33;20002;-83
2022/07/05 12:58:53;;;;;;;;;;;;;;;26.02;59.15;99791.41;4334392;33;20489;-84
2022/07/05 13:01:21;;;;;;;;;;;;;;;25.77;60.96;99792.56;4331606;32;19984;-83
2022/07/05 13:03:58;;;;;;;;;;;;;;;25.94;60.76;99787.34;4335516;33;20006;-83
2022/07/05 13:06:46;;;;;;;;;;;;;;;26.16;60.71;99788.94;4333097;33;19995;-83
2022/07/05 13:09:13;;;;;;;;;;;;;;;26.08;59.91;99775.22;4334515;32;20047;-83
2022/07/05 13:11:41;;;;;;;;;;;;;;;26.55;58.23;99779.97;4333915;33;19984;-84
2022/07/05 13:14:07;;;;;;;;;;;;;;;26.41;58.69;99778.81;4335179;33;19984;-83